EW8108 Weather Reports


time (UTC)temp
C
wind
direction
speed
KPH
gust
KPH
rain 1hr
cm
rain 24hr
cm
rain mn
cm
humidity
%
barometer
mb
20220811230836 36 158 0.0 0.0 0.00 0.00 0.00 38 974.5
20220811225828 36 159 0.0 0.0 0.00 0.00 0.00 37 974.5
20220811224824 36 158 0.0 0.0 0.00 0.00 0.00 38 974.5
20220811223828 36 158 0.0 0.0 0.00 0.00 0.00 38 974.4
20220811221705 36 161 0.0 0.0 0.00 0.00 0.00 38 974.7
20220811220651 36 177 0.0 0.0 0.00 0.00 0.00 38 974.7
20220811215628 36 176 0.0 1.6 0.00 0.00 0.00 38 974.8
20220811214619 36 28 0.0 0.0 0.00 0.00 0.00 38 974.9
20220811212444 36 20 0.0 0.0 0.00 0.00 0.00 38 975.2
20220811205127 37 186 0.0 4.8 0.00 0.00 0.00 36 975.7
20220811200734 37 347 0.0 3.2 0.00 0.00 0.00 39 976.2
20220811194641 36 149 0.0 0.0 0.00 0.00 0.00 40 976.6
20220811193636 36 281 0.0 0.0 0.00 0.00 0.00 39 976.8
20220811191441 38 300 0.0 0.0 0.00 0.00 0.00 37 977.1
20220811185332 37 263 0.0 1.6 0.00 0.00 0.00 38 977.3
20220811182024 38 212 0.0 0.0 0.00 0.00 0.00 37 977.8
20220811175855 38 212 0.0 0.0 0.00 0.00 0.00 37 978.3
20220811174904 37 212 0.0 0.0 0.00 0.00 0.00 40 978.4
20220811171500 36 199 0.0 0.0 0.00 0.00 0.00 44 979.2
20220811165544 35 193 0.0 0.0 0.00 0.00 0.00 47 979.2
20220811164603 35 194 0.0 1.6 0.00 0.00 0.00 48 979.3
20220811153643 33 197 0.0 0.0 0.00 0.00 0.00 52 979.2
20220811152608 32 196 0.0 0.0 0.00 0.00 0.00 54 979.2
20220811150531 32 196 0.0 0.0 0.00 0.00 0.00 56 979.3
20220811142059 29 195 0.0 0.0 0.00 0.00 0.00 60 979.4
20220811135749 27 195 0.0 0.0 0.00 0.00 0.00 53 979.4
20220811132434 26 195 0.0 0.0 0.00 0.00 0.00 39 979.2
20220811130322 25 195 0.0 0.0 0.00 0.00 0.00 29 979.0
20220811125341 25 195 0.0 0.0 0.00 0.00 0.00 24 979.0
20220811123231 24 195 0.0 0.0 0.00 0.00 0.00 14 978.9
20220811122214 24 195 0.0 0.0 0.00 0.00 0.00 15 979.0
20220811120003 24 195 0.0 0.0 0.00 0.00 0.00 19 978.9
20220811114952 24 195 0.0 0.0 0.00 0.00 0.00 20 978.8
20220811114009 24 195 0.0 0.0 0.00 0.00 0.00 20 978.7
20220811110657 24 195 0.0 0.0 0.00 0.00 0.00 21 978.6
20220811104549 24 195 0.0 0.0 0.00 0.00 0.00 25 978.5
20220811101234 24 195 0.0 0.0 0.00 0.00 0.00 22 978.4
20220811100202 24 195 0.0 0.0 0.00 0.00 0.00 21 978.5
20220811094046 24 195 0.0 0.0 0.00 0.00 0.00 20 978.8
20220811093034 24 195 0.0 0.0 0.00 0.00 0.00 21 978.9
20220811092058 24 195 0.0 0.0 0.00 0.00 0.00 22 978.8
20220811072716 25 195 0.0 0.0 0.00 0.00 0.00 33 979.0
20220811071722 25 195 0.0 0.0 0.00 0.00 0.00 35 979.1
20220811070709 25 195 0.0 0.0 0.00 0.00 0.00 35 979.2
20220811064551 25 195 0.0 0.0 0.00 0.00 0.00 38 979.3
20220811063600 25 195 0.0 0.0 0.00 0.00 0.00 38 979.3
20220811052749 25 195 0.0 0.0 0.00 0.00 0.00 55 980.0
20220811051740 26 195 0.0 0.0 0.00 0.00 0.00 56 980.1
20220811032433 28 189 0.0 1.6 0.00 0.00 0.00 61 979.6
20220811025136 28 159 0.0 0.0 0.00 0.00 0.00 56 979.3
20220811023036 28 155 0.0 0.0 0.00 0.00 0.00 54 979.1
20220811020941 28 147 0.0 0.0 0.00 0.00 0.00 53 979.1
20220811012442 29 148 0.0 0.0 0.00 0.00 0.00 53 978.6
20220811011436 29 148 0.0 0.0 0.00 0.00 0.00 52 978.4
20220811005332 30 148 0.0 0.0 0.00 0.00 0.00 53 977.9
20220811003138 30 178 0.0 0.0 0.00 0.00 0.00 52 977.6
20220811002158 30 212 0.0 0.0 0.00 0.00 0.00 52 977.7
20220811000006 30 341 0.0 1.6 0.00 0.00 0.00 51 978.1